Time;durP1;ratioP1;P1;durP2;ratioP2;P2;SDS_P1;SDS_P2;PMS_P1;PMS_P2;Temp;Humidity;BMP_temperature;BMP_pressure;BME280_temperature;BME280_humidity;BME280_pressure;Samples;Min_cycle;Max_cycle;Signal;HPM_P1;HPM_P2
2022/09/09 00:00:27;;;;;;;20.42;2.92;;;;;;;;;;5093917;28;20020;-69
2022/09/09 00:03:08;;;;;;;19.55;2.78;;;;;;;;;;5093027;28;20015;-66
2022/09/09 00:05:41;;;;;;;16.33;3.00;;;;;;;;;;5091956;28;20020;-68
2022/09/09 00:08:13;;;;;;;18.23;3.15;;;;;;;;;;5094278;28;20084;-65
2022/09/09 00:10:41;;;;;;;18.23;3.35;;;;;;;;;;5092821;28;20024;-66
2022/09/09 00:13:24;;;;;;;15.85;2.85;;;;;;;;;;5093281;28;20020;-64
2022/09/09 00:16:09;;;;;;;17.30;2.38;;;;;;;;;;5091848;28;20032;-66
2022/09/09 00:18:54;;;;;;;15.55;2.40;;;;;;;;;;5092904;28;20490;-67
2022/09/09 00:21:23;;;;;;;16.58;2.70;;;;;;;;;;5091215;28;20032;-66
2022/09/09 00:23:49;;;;;;;14.77;2.58;;;;;;;;;;5079619;28;20020;-66
2022/09/09 00:26:34;;;;;;;12.77;2.38;;;;;;;;;;5093544;28;20024;-68
2022/09/09 00:29:11;;;;;;;16.55;2.67;;;;;;;;;;5090981;28;20542;-67
2022/09/09 00:31:38;;;;;;;17.48;2.75;;;;;;;;;;5090796;28;20032;-70
2022/09/09 00:34:14;;;;;;;17.63;2.97;;;;;;;;;;5092453;28;20346;-69
2022/09/09 00:36:43;;;;;;;16.30;2.45;;;;;;;;;;5092986;28;20405;-70
2022/09/09 00:39:29;;;;;;;14.57;2.47;;;;;;;;;;5093646;28;20024;-67
2022/09/09 00:42:11;;;;;;;17.65;2.58;;;;;;;;;;5089550;28;20546;-68
2022/09/09 00:44:38;;;;;;;19.13;2.83;;;;;;;;;;5091158;28;20020;-69
2022/09/09 00:47:25;;;;;;;17.60;2.75;;;;;;;;;;5089379;28;20078;-68
2022/09/09 00:49:55;;;;;;;19.33;3.05;;;;;;;;;;5091948;28;20069;-67
2022/09/09 00:52:26;;;;;;;15.23;2.45;;;;;;;;;;5091591;28;20031;-69
2022/09/09 00:55:04;;;;;;;14.52;2.30;;;;;;;;;;5091103;28;20453;-66
2022/09/09 00:57:34;;;;;;;14.15;2.78;;;;;;;;;;5091725;28;20419;-67
2022/09/09 01:00:20;;;;;;;19.08;3.10;;;;;;;;;;5091800;28;20019;-67
2022/09/09 01:02:57;;;;;;;19.17;2.85;;;;;;;;;;5090883;28;20028;-67
2022/09/09 01:05:24;;;;;;;18.27;3.35;;;;;;;;;;5107638;28;20398;-67
2022/09/09 01:07:50;;;;;;;16.63;3.20;;;;;;;;;;5091848;28;20024;-67
2022/09/09 01:10:35;;;;;;;14.57;2.40;;;;;;;;;;5089835;28;20036;-66
2022/09/09 01:13:05;;;;;;;20.00;2.92;;;;;;;;;;5092834;28;20099;-68
2022/09/09 01:15:32;;;;;;;14.93;2.40;;;;;;;;;;5088057;28;20078;-66
2022/09/09 01:18:02;;;;;;;15.27;2.38;;;;;;;;;;5088860;28;20119;-66
2022/09/09 01:20:39;;;;;;;20.80;2.90;;;;;;;;;;5091118;28;20059;-66
2022/09/09 01:23:19;;;;;;;15.63;3.08;;;;;;;;;;5091734;28;20123;-68
2022/09/09 01:26:15;;;;;;;20.17;3.20;;;;;;;;;;5077712;28;20433;-66
2022/09/09 01:28:46;;;;;;;9.00;2.13;;;;;;;;;;5090856;28;20032;-67
2022/09/09 01:31:17;;;;;;;11.63;2.70;;;;;;;;;;5089149;28;20425;-68
2022/09/09 01:33:46;;;;;;;19.67;2.70;;;;;;;;;;5092120;28;20051;-67
2022/09/09 01:36:18;;;;;;;35.05;4.28;;;;;;;;;;5073926;28;20062;-67
2022/09/09 01:38:48;;;;;;;33.53;3.50;;;;;;;;;;5090872;28;20123;-67
2022/09/09 01:41:15;;;;;;;18.85;2.63;;;;;;;;;;5090438;28;20032;-65
2022/09/09 01:43:55;;;;;;;25.30;2.70;;;;;;;;;;5086931;28;20654;-67
2022/09/09 01:46:22;;;;;;;18.65;3.05;;;;;;;;;;5064575;28;20021;-67
2022/09/09 01:48:50;;;;;;;13.45;2.70;;;;;;;;;;5090816;28;20024;-68
2022/09/09 01:51:17;;;;;;;18.23;3.15;;;;;;;;;;5089120;28;20020;-67
2022/09/09 01:53:43;;;;;;;17.85;2.92;;;;;;;;;;5075483;28;20077;-68
2022/09/09 01:56:10;;;;;;;16.92;2.80;;;;;;;;;;5091164;28;20047;-67
2022/09/09 01:58:39;;;;;;;19.40;2.72;;;;;;;;;;5092153;28;20149;-67
2022/09/09 02:01:15;;;;;;;15.80;2.55;;;;;;;;;;5081290;28;20111;-66
2022/09/09 02:03:44;;;;;;;15.40;2.80;;;;;;;;;;5089939;28;20039;-68
2022/09/09 02:06:29;;;;;;;14.95;2.92;;;;;;;;;;5081662;28;20108;-67
2022/09/09 02:09:04;;;;;;;16.20;2.90;;;;;;;;;;5087655;28;20020;-67
2022/09/09 02:11:32;;;;;;;13.30;3.00;;;;;;;;;;5091796;28;20481;-67
2022/09/09 02:14:22;;;;;;;24.75;3.17;;;;;;;;;;5091905;28;20020;-66
2022/09/09 02:17:24;;;;;;;30.77;3.90;;;;;;;;;;5090899;28;19920;-66
2022/09/09 02:20:08;;;;;;;51.22;4.80;;;;;;;;;;5038355;28;20391;-67
2022/09/09 02:22:56;;;;;;;24.10;3.70;;;;;;;;;;5091749;28;20472;-68
2022/09/09 02:25:25;;;;;;;27.50;3.60;;;;;;;;;;5074780;28;20119;-68
2022/09/09 02:27:55;;;;;;;30.15;3.78;;;;;;;;;;5084680;28;20021;-69
2022/09/09 02:30:21;;;;;;;32.92;4.30;;;;;;;;;;5082788;28;20042;-67
2022/09/09 02:32:56;;;;;;;13.13;3.05;;;;;;;;;;5088467;28;20023;-67
2022/09/09 02:35:30;;;;;;;22.10;4.65;;;;;;;;;;5088311;28;20040;-67
2022/09/09 02:37:59;;;;;;;18.70;5.75;;;;;;;;;;5079488;28;20017;-67
2022/09/09 02:40:26;;;;;;;19.58;7.63;;;;;;;;;;5080291;28;20033;-67
2022/09/09 02:42:59;;;;;;;18.88;6.75;;;;;;;;;;5086826;28;20107;-67
2022/09/09 02:45:31;;;;;;;25.05;5.78;;;;;;;;;;5074304;28;20493;-67
2022/09/09 02:48:03;;;;;;;31.58;4.57;;;;;;;;;;5090752;28;20059;-67
2022/09/09 02:50:33;;;;;;;19.88;3.63;;;;;;;;;;5091187;28;20032;-68
2022/09/09 02:53:00;;;;;;;16.92;3.25;;;;;;;;;;5078794;28;20017;-67
2022/09/09 02:55:37;;;;;;;26.15;4.38;;;;;;;;;;5090393;28;20079;-67
2022/09/09 02:58:07;;;;;;;41.58;6.72;;;;;;;;;;5083740;28;20431;-67
2022/09/09 03:00:36;;;;;;;32.30;6.30;;;;;;;;;;5091072;28;20116;-67
2022/09/09 03:03:06;;;;;;;38.47;7.28;;;;;;;;;;5076271;28;20056;-68
2022/09/09 03:05:33;;;;;;;34.40;6.75;;;;;;;;;;5074836;28;20023;-67
2022/09/09 03:08:00;;;;;;;27.05;5.50;;;;;;;;;;5090994;28;20056;-66
2022/09/09 03:10:26;;;;;;;25.85;4.63;;;;;;;;;;5081251;28;20394;-66
2022/09/09 03:12:52;;;;;;;28.48;5.50;;;;;;;;;;5086489;28;20062;-69
2022/09/09 03:15:18;;;;;;;28.60;7.50;;;;;;;;;;5073968;28;20467;-69
2022/09/09 03:17:45;;;;;;;29.88;7.28;;;;;;;;;;5093603;28;20020;-68
2022/09/09 03:20:12;;;;;;;21.30;7.18;;;;;;;;;;5095438;28;20091;-69
2022/09/09 03:22:38;;;;;;;29.05;7.35;;;;;;;;;;5087070;28;20085;-67
2022/09/09 03:25:05;;;;;;;35.25;6.93;;;;;;;;;;5096381;28;20533;-68
2022/09/09 03:27:33;;;;;;;31.95;7.75;;;;;;;;;;5095329;28;20028;-67
2022/09/09 03:30:00;;;;;;;29.50;6.55;;;;;;;;;;5095803;28;20008;-68
2022/09/09 03:32:26;;;;;;;26.60;5.97;;;;;;;;;;5083244;28;20393;-67
2022/09/09 03:34:54;;;;;;;19.92;5.15;;;;;;;;;;5089427;28;20485;-67
2022/09/09 03:37:22;;;;;;;27.63;6.10;;;;;;;;;;5087639;28;20036;-68
2022/09/09 03:39:50;;;;;;;18.23;5.43;;;;;;;;;;5088381;28;20023;-67
2022/09/09 03:42:20;;;;;;;19.00;6.20;;;;;;;;;;5085520;28;20016;-67
2022/09/09 03:44:50;;;;;;;24.35;8.15;;;;;;;;;;5094084;28;20026;-67
2022/09/09 03:47:21;;;;;;;34.38;10.30;;;;;;;;;;5093888;28;20028;-67
2022/09/09 03:49:50;;;;;;;30.13;8.60;;;;;;;;;;5094642;28;20077;-68
2022/09/09 03:52:16;;;;;;;20.35;6.28;;;;;;;;;;5084745;28;20017;-68
2022/09/09 03:54:43;;;;;;;25.02;5.32;;;;;;;;;;5087567;28;20044;-67
2022/09/09 03:57:10;;;;;;;17.85;4.47;;;;;;;;;;5077605;28;20048;-68
2022/09/09 03:59:37;;;;;;;20.98;4.78;;;;;;;;;;5089630;28;20614;-68
2022/09/09 04:02:03;;;;;;;21.63;4.80;;;;;;;;;;5081986;28;20016;-67
2022/09/09 04:04:29;;;;;;;21.52;4.93;;;;;;;;;;5089867;28;20027;-67
2022/09/09 04:06:56;;;;;;;19.48;4.47;;;;;;;;;;5094501;28;20031;-68
2022/09/09 04:09:23;;;;;;;16.42;4.78;;;;;;;;;;5091770;28;20109;-67
2022/09/09 04:11:51;;;;;;;21.17;4.90;;;;;;;;;;5080372;28;20019;-69
2022/09/09 04:14:17;;;;;;;20.10;4.63;;;;;;;;;;5093675;28;20024;-69
2022/09/09 04:16:44;;;;;;;20.10;4.90;;;;;;;;;;5093699;28;20161;-67
2022/09/09 04:19:13;;;;;;;23.85;4.68;;;;;;;;;;5093923;28;20024;-67
2022/09/09 04:21:41;;;;;;;23.60;4.60;;;;;;;;;;5090332;28;20016;-67
2022/09/09 04:24:08;;;;;;;18.13;3.75;;;;;;;;;;5082528;28;20497;-68
2022/09/09 04:26:36;;;;;;;26.90;4.32;;;;;;;;;;5081473;28;20074;-68
2022/09/09 04:29:03;;;;;;;15.18;4.15;;;;;;;;;;5089205;28;20020;-68
2022/09/09 04:31:30;;;;;;;21.70;4.35;;;;;;;;;;5060106;28;20020;-67
2022/09/09 04:33:56;;;;;;;24.60;4.55;;;;;;;;;;5086944;28;20024;-68
2022/09/09 04:36:24;;;;;;;19.85;4.38;;;;;;;;;;5084537;28;20093;-69
2022/09/09 04:38:55;;;;;;;17.80;4.03;;;;;;;;;;5078473;28;20032;-68
2022/09/09 04:41:21;;;;;;;24.50;5.03;;;;;;;;;;5092561;28;20024;-68
2022/09/09 04:43:52;;;;;;;20.42;3.85;;;;;;;;;;5092647;28;20107;-67
2022/09/09 04:46:18;;;;;;;11.98;2.75;;;;;;;;;;5093095;28;20386;-68
2022/09/09 04:48:46;;;;;;;13.88;2.70;;;;;;;;;;5093560;28;20016;-68
2022/09/09 04:51:13;;;;;;;14.25;3.47;;;;;;;;;;5075479;28;20077;-67
2022/09/09 04:53:40;;;;;;;10.60;3.45;;;;;;;;;;5078210;28;20080;-67
2022/09/09 04:56:09;;;;;;;17.08;4.13;;;;;;;;;;5084273;28;20052;-67
2022/09/09 04:58:44;;;;;;;11.35;3.63;;;;;;;;;;5087588;28;20055;-67
2022/09/09 05:01:12;;;;;;;10.27;2.55;;;;;;;;;;5076421;28;20056;-67
2022/09/09 05:03:39;;;;;;;9.30;2.15;;;;;;;;;;5071928;28;20052;-69
2022/09/09 05:06:09;;;;;;;11.23;2.22;;;;;;;;;;5081699;28;20026;-66
2022/09/09 05:08:37;;;;;;;6.30;2.00;;;;;;;;;;5086624;28;20113;-67
2022/09/09 05:11:04;;;;;;;7.40;2.20;;;;;;;;;;5093042;28;20505;-67
2022/09/09 05:13:31;;;;;;;15.55;2.03;;;;;;;;;;5093117;28;20181;-67
2022/09/09 05:15:58;;;;;;;12.70;2.40;;;;;;;;;;5094120;28;20028;-67
2022/09/09 05:18:24;;;;;;;12.38;2.50;;;;;;;;;;5092517;28;20473;-67
2022/09/09 05:20:51;;;;;;;8.88;2.00;;;;;;;;;;5092533;28;20024;-67
2022/09/09 05:23:17;;;;;;;12.13;2.53;;;;;;;;;;5092361;28;20031;-69
2022/09/09 05:25:46;;;;;;;11.35;2.30;;;;;;;;;;5077880;28;20031;-68
2022/09/09 05:28:13;;;;;;;11.30;2.38;;;;;;;;;;5083254;28;20052;-67
2022/09/09 05:30:40;;;;;;;11.68;2.50;;;;;;;;;;5085415;28;20660;-67
2022/09/09 05:33:09;;;;;;;9.80;2.00;;;;;;;;;;5075949;28;20060;-69
2022/09/09 05:35:35;;;;;;;15.00;2.22;;;;;;;;;;5088225;28;20048;-69
2022/09/09 05:38:02;;;;;;;11.93;2.25;;;;;;;;;;5080072;28;20386;-67
2022/09/09 05:40:28;;;;;;;9.85;2.20;;;;;;;;;;5080010;28;20490;-68
2022/09/09 05:42:59;;;;;;;17.33;2.00;;;;;;;;;;5087464;28;20122;-68
2022/09/09 05:45:25;;;;;;;14.88;2.50;;;;;;;;;;5075283;28;20550;-67
2022/09/09 05:47:55;;;;;;;18.13;2.60;;;;;;;;;;5091665;28;20016;-67
2022/09/09 05:50:22;;;;;;;14.95;2.30;;;;;;;;;;5091119;28;20032;-66
2022/09/09 05:52:50;;;;;;;8.90;2.08;;;;;;;;;;5091748;28;20016;-66
2022/09/09 05:55:17;;;;;;;7.30;2.22;;;;;;;;;;5091357;28;20048;-67
2022/09/09 05:57:48;;;;;;;16.50;2.13;;;;;;;;;;5091665;28;20397;-66
2022/09/09 06:00:15;;;;;;;22.40;2.50;;;;;;;;;;5092745;28;20027;-67
2022/09/09 06:02:50;;;;;;;14.48;2.22;;;;;;;;;;5089339;28;20016;-67
2022/09/09 06:05:16;;;;;;;13.30;2.60;;;;;;;;;;5091361;28;20020;-67
2022/09/09 06:07:44;;;;;;;12.25;2.30;;;;;;;;;;5091537;28;20016;-67
2022/09/09 06:10:14;;;;;;;18.23;2.50;;;;;;;;;;5082815;28;20482;-66
2022/09/09 06:12:40;;;;;;;24.88;2.47;;;;;;;;;;5084818;28;20027;-66
2022/09/09 06:15:08;;;;;;;11.57;1.98;;;;;;;;;;5081656;28;20085;-67
2022/09/09 06:17:35;;;;;;;17.98;2.65;;;;;;;;;;5092058;28;20031;-67
2022/09/09 06:20:01;;;;;;;15.90;2.75;;;;;;;;;;5091459;28;20020;-67
2022/09/09 06:22:29;;;;;;;19.38;2.45;;;;;;;;;;5076727;28;20027;-67
2022/09/09 06:24:56;;;;;;;42.75;3.33;;;;;;;;;;5090952;28;20027;-66
2022/09/09 06:27:22;;;;;;;17.75;2.58;;;;;;;;;;5091199;28;20517;-66
2022/09/09 06:29:48;;;;;;;15.50;2.00;;;;;;;;;;5086820;28;20024;-67
2022/09/09 06:32:17;;;;;;;14.98;2.28;;;;;;;;;;5091017;28;20031;-68
2022/09/09 06:34:45;;;;;;;13.57;2.13;;;;;;;;;;5090873;28;20036;-66
2022/09/09 06:37:12;;;;;;;9.77;1.77;;;;;;;;;;5088526;28;20090;-66
2022/09/09 06:39:44;;;;;;;11.32;1.90;;;;;;;;;;5090866;28;20039;-67
2022/09/09 06:42:11;;;;;;;9.00;1.95;;;;;;;;;;5082282;28;20044;-66
2022/09/09 06:44:56;;;;;;;9.30;1.80;;;;;;;;;;5085603;28;20012;-67
2022/09/09 06:47:36;;;;;;;18.48;2.63;;;;;;;;;;5090089;28;20035;-67
2022/09/09 06:50:03;;;;;;;17.77;2.70;;;;;;;;;;5090699;28;20046;-66
2022/09/09 06:52:32;;;;;;;16.45;2.50;;;;;;;;;;5091022;28;20105;-66
2022/09/09 06:55:00;;;;;;;16.33;2.20;;;;;;;;;;5087458;28;20044;-67
2022/09/09 06:57:26;;;;;;;17.92;2.10;;;;;;;;;;5092519;28;20078;-69
2022/09/09 06:59:52;;;;;;;44.85;4.13;;;;;;;;;;5084568;28;20025;-68
2022/09/09 07:02:20;;;;;;;75.40;5.10;;;;;;;;;;5075874;28;20044;-65
2022/09/09 07:04:46;;;;;;;65.93;5.47;;;;;;;;;;5087168;28;20051;-67
2022/09/09 07:07:15;;;;;;;76.25;5.53;;;;;;;;;;5087947;28;20077;-66
2022/09/09 07:09:41;;;;;;;30.60;2.58;;;;;;;;;;5090629;28;20035;-66
2022/09/09 07:12:08;;;;;;;28.65;2.33;;;;;;;;;;5082285;28;20028;-65
2022/09/09 07:14:39;;;;;;;35.65;2.85;;;;;;;;;;5082554;28;20077;-66
2022/09/09 07:17:10;;;;;;;20.80;2.47;;;;;;;;;;5089966;28;20031;-66
2022/09/09 07:19:39;;;;;;;16.20;2.05;;;;;;;;;;5088016;28;20163;-66
2022/09/09 07:22:06;;;;;;;19.67;2.28;;;;;;;;;;5091392;28;20015;-66
2022/09/09 07:24:33;;;;;;;22.98;2.00;;;;;;;;;;5089740;28;20048;-65
2022/09/09 07:27:00;;;;;;;24.00;2.10;;;;;;;;;;5091915;28;20016;-66
2022/09/09 07:29:26;;;;;;;52.58;3.38;;;;;;;;;;5091381;28;20105;-66
2022/09/09 07:31:53;;;;;;;29.60;2.55;;;;;;;;;;5091467;28;20016;-67
2022/09/09 07:34:25;;;;;;;17.00;2.47;;;;;;;;;;5089454;28;20035;-66
2022/09/09 07:36:51;;;;;;;44.40;3.70;;;;;;;;;;5090172;28;20524;-66
2022/09/09 07:39:18;;;;;;;19.45;2.30;;;;;;;;;;5090324;28;20016;-67
2022/09/09 07:41:51;;;;;;;18.27;2.38;;;;;;;;;;5090407;28;20036;-66
2022/09/09 07:44:22;;;;;;;12.40;2.28;;;;;;;;;;5073266;28;20032;-65
2022/09/09 07:46:54;;;;;;;14.68;2.35;;;;;;;;;;5089678;28;20028;-67
2022/09/09 07:49:26;;;;;;;9.35;2.40;;;;;;;;;;5090220;28;20032;-65
2022/09/09 07:51:52;;;;;;;12.50;2.30;;;;;;;;;;5091585;28;20028;-65
2022/09/09 07:54:20;;;;;;;16.83;2.72;;;;;;;;;;5089953;28;20024;-64
2022/09/09 07:56:49;;;;;;;19.33;2.40;;;;;;;;;;5090186;28;20444;-67
2022/09/09 07:59:16;;;;;;;19.65;2.95;;;;;;;;;;5089873;28;20052;-66
2022/09/09 08:01:46;;;;;;;16.13;2.63;;;;;;;;;;5090116;28;20036;-65
2022/09/09 08:04:17;;;;;;;12.75;2.40;;;;;;;;;;5092257;28;20024;-65
2022/09/09 08:06:46;;;;;;;17.35;2.67;;;;;;;;;;5093842;28;20028;-66
2022/09/09 08:09:14;;;;;;;27.48;3.53;;;;;;;;;;5093570;28;20038;-65
2022/09/09 08:11:42;;;;;;;20.45;3.35;;;;;;;;;;5093862;28;20115;-65
2022/09/09 08:14:09;;;;;;;23.42;3.03;;;;;;;;;;5093558;28;20035;-65
2022/09/09 08:16:38;;;;;;;30.55;3.13;;;;;;;;;;5093096;28;20145;-65
2022/09/09 08:19:07;;;;;;;19.90;3.00;;;;;;;;;;5093078;28;20016;-66
2022/09/09 08:21:36;;;;;;;18.92;2.75;;;;;;;;;;5094297;28;20082;-67
2022/09/09 08:24:04;;;;;;;12.07;2.80;;;;;;;;;;5093749;28;20024;-65
2022/09/09 08:26:34;;;;;;;17.85;2.70;;;;;;;;;;5093763;28;20625;-66
2022/09/09 08:29:01;;;;;;;14.63;2.58;;;;;;;;;;5093726;28;20051;-64
2022/09/09 08:31:29;;;;;;;16.65;3.40;;;;;;;;;;5093947;28;20024;-65
2022/09/09 08:33:56;;;;;;;10.25;2.65;;;;;;;;;;5093433;28;20408;-66
2022/09/09 08:36:25;;;;;;;14.10;3.22;;;;;;;;;;5091723;28;20028;-67
2022/09/09 08:38:54;;;;;;;10.27;3.22;;;;;;;;;;5075923;28;20074;-66
2022/09/09 08:41:35;;;;;;;13.05;3.28;;;;;;;;;;5091850;28;20389;-66
2022/09/09 08:44:04;;;;;;;16.15;3.22;;;;;;;;;;5094033;28;20028;-66
2022/09/09 08:46:56;;;;;;;12.38;3.05;;;;;;;;;;5095009;28;20008;-66
2022/09/09 08:49:40;;;;;;;13.45;3.15;;;;;;;;;;5080020;28;20497;-67
2022/09/09 08:52:16;;;;;;;10.40;2.90;;;;;;;;;;5093293;28;20035;-67
2022/09/09 08:54:42;;;;;;;11.88;3.08;;;;;;;;;;5092909;28;20032;-66
2022/09/09 08:57:14;;;;;;;14.43;3.47;;;;;;;;;;5093137;28;20039;-66
2022/09/09 08:59:41;;;;;;;13.13;3.40;;;;;;;;;;5093281;28;20036;-67
2022/09/09 09:02:07;;;;;;;11.90;3.05;;;;;;;;;;5089546;28;20064;-67
2022/09/09 09:04:54;;;;;;;13.10;3.20;;;;;;;;;;5092638;28;20027;-67
2022/09/09 09:07:41;;;;;;;11.13;2.60;;;;;;;;;;5092817;28;20043;-65
2022/09/09 09:10:12;;;;;;;12.43;2.95;;;;;;;;;;5090419;28;20020;-66
2022/09/09 09:12:41;;;;;;;13.25;3.00;;;;;;;;;;5092889;28;20031;-67
2022/09/09 09:15:15;;;;;;;12.25;3.15;;;;;;;;;;5090197;28;20148;-67
2022/09/09 09:17:42;;;;;;;9.25;2.53;;;;;;;;;;5092915;28;21479;-66
2022/09/09 09:20:13;;;;;;;9.20;2.50;;;;;;;;;;5091576;28;20482;-66
2022/09/09 09:22:44;;;;;;;11.63;2.50;;;;;;;;;;5092635;28;20054;-66
2022/09/09 09:25:23;;;;;;;7.75;2.35;;;;;;;;;;5090594;28;20020;-66
2022/09/09 09:28:09;;;;;;;8.02;2.55;;;;;;;;;;5090367;28;20023;-67
2022/09/09 09:30:46;;;;;;;9.35;2.72;;;;;;;;;;5091504;28;20016;-66
2022/09/09 09:33:19;;;;;;;7.47;2.17;;;;;;;;;;5090193;28;20028;-66
2022/09/09 09:35:46;;;;;;;9.80;2.70;;;;;;;;;;5091998;28;20092;-67
2022/09/09 09:38:19;;;;;;;7.03;2.38;;;;;;;;;;5092237;28;20024;-67
2022/09/09 09:40:55;;;;;;;8.00;2.33;;;;;;;;;;5089811;28;20016;-67
2022/09/09 09:43:24;;;;;;;7.57;2.10;;;;;;;;;;5093564;28;20044;-67
2022/09/09 09:45:50;;;;;;;11.00;2.47;;;;;;;;;;5093311;28;20008;-67
2022/09/09 09:48:17;;;;;;;8.48;2.70;;;;;;;;;;5091946;28;20027;-65
2022/09/09 09:50:52;;;;;;;7.32;2.10;;;;;;;;;;5092031;28;20411;-67
2022/09/09 09:53:22;;;;;;;7.65;2.25;;;;;;;;;;5092155;28;20073;-67
2022/09/09 09:56:06;;;;;;;8.63;2.10;;;;;;;;;;5089319;28;20668;-67
2022/09/09 09:58:37;;;;;;;9.15;2.42;;;;;;;;;;5090005;28;20028;-67
2022/09/09 10:01:04;;;;;;;8.95;2.22;;;;;;;;;;5091775;28;20058;-67
2022/09/09 10:03:32;;;;;;;9.05;2.30;;;;;;;;;;5091620;28;20051;-66
2022/09/09 10:06:00;;;;;;;15.88;2.55;;;;;;;;;;5091834;28;20071;-66
2022/09/09 10:08:27;;;;;;;12.05;2.45;;;;;;;;;;5092885;28;20018;-66
2022/09/09 10:11:24;;;;;;;13.25;2.55;;;;;;;;;;5093033;28;20020;-66
2022/09/09 10:14:02;;;;;;;11.57;2.50;;;;;;;;;;5093022;28;20035;-67
2022/09/09 10:16:48;;;;;;;10.65;2.20;;;;;;;;;;5090328;28;21085;-66
2022/09/09 10:19:27;;;;;;;6.07;1.92;;;;;;;;;;5091044;28;20505;-65
2022/09/09 10:22:06;;;;;;;8.88;2.05;;;;;;;;;;5091140;28;20035;-66
2022/09/09 10:24:48;;;;;;;7.28;2.08;;;;;;;;;;5090686;28;20484;-66
2022/09/09 10:27:30;;;;;;;10.85;1.85;;;;;;;;;;5090883;28;20028;-66
2022/09/09 10:29:59;;;;;;;13.23;2.13;;;;;;;;;;5091389;28;20055;-66
2022/09/09 10:32:51;;;;;;;10.27;1.90;;;;;;;;;;5092323;28;20087;-66
2022/09/09 10:35:30;;;;;;;10.18;1.45;;;;;;;;;;5078817;28;20040;-66
2022/09/09 10:38:29;;;;;;;8.13;1.45;;;;;;;;;;5091175;28;20032;-66
2022/09/09 10:40:58;;;;;;;11.55;1.75;;;;;;;;;;5078705;28;20076;-66
2022/09/09 10:43:24;;;;;;;16.45;2.05;;;;;;;;;;5092545;28;20012;-66
2022/09/09 10:46:08;;;;;;;10.50;1.60;;;;;;;;;;5092533;28;20016;-66
2022/09/09 10:48:37;;;;;;;10.55;1.67;;;;;;;;;;5092658;28;20039;-66
2022/09/09 10:51:14;;;;;;;38.45;2.47;;;;;;;;;;5092822;28;20019;-65
2022/09/09 10:53:43;;;;;;;8.45;1.30;;;;;;;;;;5093068;28;20497;-65
2022/09/09 10:56:10;;;;;;;11.48;1.80;;;;;;;;;;5092620;28;20052;-66
2022/09/09 10:58:43;;;;;;;10.25;1.67;;;;;;;;;;5092628;28;20039;-65
2022/09/09 11:01:15;;;;;;;15.68;1.70;;;;;;;;;;5092755;28;20153;-65
2022/09/09 11:03:43;;;;;;;11.10;1.52;;;;;;;;;;5092637;28;20035;-65
2022/09/09 11:06:14;;;;;;;21.92;2.10;;;;;;;;;;5092683;28;20016;-66
2022/09/09 11:08:41;;;;;;;28.02;2.22;;;;;;;;;;5092724;28;20020;-66
2022/09/09 11:11:11;;;;;;;9.95;1.60;;;;;;;;;;5092394;28;20043;-66
2022/09/09 11:13:51;;;;;;;10.38;1.85;;;;;;;;;;5092830;28;20067;-66
2022/09/09 11:16:35;;;;;;;12.63;2.22;;;;;;;;;;5092373;28;20036;-66
2022/09/09 11:19:04;;;;;;;9.07;2.38;;;;;;;;;;5072363;28;20060;-66
2022/09/09 11:21:34;;;;;;;11.93;1.70;;;;;;;;;;5072123;28;20032;-66
2022/09/09 11:24:04;;;;;;;14.45;2.03;;;;;;;;;;5072287;28;20024;-66
2022/09/09 11:26:36;;;;;;;12.52;2.53;;;;;;;;;;5072180;28;20390;-66
2022/09/09 11:29:06;;;;;;;18.70;2.90;;;;;;;;;;5072255;28;20025;-66
2022/09/09 11:31:58;;;;;;;13.40;2.20;;;;;;;;;;5072240;28;20031;-66
2022/09/09 11:34:24;;;;;;;17.83;2.70;;;;;;;;;;5090700;28;20313;-66
2022/09/09 11:36:56;;;;;;;12.20;2.60;;;;;;;;;;5092296;28;20028;-66
2022/09/09 11:39:39;;;;;;;16.67;2.47;;;;;;;;;;5096318;28;20073;-65
2022/09/09 11:42:18;;;;;;;12.35;2.40;;;;;;;;;;5096229;28;20446;-66
2022/09/09 11:44:44;;;;;;;15.20;3.08;;;;;;;;;;5096087;28;20036;-66
2022/09/09 11:47:29;;;;;;;18.05;3.47;;;;;;;;;;5096218;28;20016;-65
2022/09/09 11:50:16;;;;;;;16.13;3.75;;;;;;;;;;5096096;28;20020;-66
2022/09/09 11:52:45;;;;;;;19.95;3.78;;;;;;;;;;5091992;28;20516;-66
2022/09/09 11:55:26;;;;;;;16.33;3.40;;;;;;;;;;5095813;28;20080;-65
2022/09/09 11:58:25;;;;;;;18.60;3.33;;;;;;;;;;5095987;28;20543;-65
2022/09/09 12:00:52;;;;;;;24.75;4.00;;;;;;;;;;5083640;28;20055;-65
2022/09/09 12:03:37;;;;;;;20.08;4.10;;;;;;;;;;5095162;28;20008;-65
2022/09/09 12:06:02;;;;;;;;;;;;;;;;;;5096361;28;20362;-67
2022/09/09 12:08:29;;;;;;;13.00;4.10;;;;;;;;;;5095804;28;19904;-66
2022/09/09 12:10:56;;;;;;;15.73;4.30;;;;;;;;;;5095912;28;20060;-66
2022/09/09 12:13:24;;;;;;;19.45;4.20;;;;;;;;;;5095821;28;20028;-66
2022/09/09 12:15:53;;;;;;;17.02;3.75;;;;;;;;;;5095642;28;20553;-66
2022/09/09 12:18:31;;;;;;;17.67;4.05;;;;;;;;;;5095658;28;20012;-66
2022/09/09 12:21:07;;;;;;;12.18;2.75;;;;;;;;;;5095706;28;20082;-66
2022/09/09 12:23:42;;;;;;;14.32;2.70;;;;;;;;;;5095709;28;20051;-66
2022/09/09 12:26:17;;;;;;;12.27;3.35;;;;;;;;;;5095535;28;20028;-65
2022/09/09 12:28:54;;;;;;;12.52;4.72;;;;;;;;;;5087382;28;20399;-66
2022/09/09 12:31:21;;;;;;;14.98;4.10;;;;;;;;;;5095497;28;20028;-65
2022/09/09 12:33:48;;;;;;;12.65;3.22;;;;;;;;;;5095341;28;20023;-66
2022/09/09 12:36:32;;;;;;;15.82;3.60;;;;;;;;;;5094975;28;20036;-66
2022/09/09 12:39:10;;;;;;;12.75;3.03;;;;;;;;;;5095400;28;20025;-66
2022/09/09 12:41:36;;;;;;;12.18;2.60;;;;;;;;;;5095298;28;20024;-66
2022/09/09 12:44:07;;;;;;;15.95;3.33;;;;;;;;;;5095319;28;20020;-66
2022/09/09 12:46:40;;;;;;;23.08;3.47;;;;;;;;;;5095006;28;20032;-67
2022/09/09 12:49:24;;;;;;;12.65;3.00;;;;;;;;;;5094734;28;20024;-67
2022/09/09 12:51:50;;;;;;;12.45;2.90;;;;;;;;;;5095059;28;20024;-66
2022/09/09 12:54:16;;;;;;;23.70;4.00;;;;;;;;;;5094675;28;20046;-65
2022/09/09 12:56:45;;;;;;;17.02;4.10;;;;;;;;;;5094937;28;20177;-66
2022/09/09 12:59:23;;;;;;;18.58;4.80;;;;;;;;;;5094847;28;20412;-65
2022/09/09 13:01:55;;;;;;;15.18;3.40;;;;;;;;;;5094525;28;20111;-65
2022/09/09 13:04:24;;;;;;;22.63;4.40;;;;;;;;;;5094684;28;20485;-65
2022/09/09 13:06:52;;;;;;;16.65;4.50;;;;;;;;;;5094773;28;20020;-65
2022/09/09 13:09:19;;;;;;;16.55;4.90;;;;;;;;;;5094595;28;20066;-65
2022/09/09 13:11:58;;;;;;;21.80;5.78;;;;;;;;;;5094553;28;20020;-66
2022/09/09 13:14:29;;;;;;;17.02;5.00;;;;;;;;;;5094210;28;20035;-65
2022/09/09 13:16:56;;;;;;;21.00;4.97;;;;;;;;;;5094462;28;20036;-65
2022/09/09 13:19:25;;;;;;;17.52;4.47;;;;;;;;;;5094465;28;20382;-65
2022/09/09 13:21:52;;;;;;;18.48;4.60;;;;;;;;;;5094357;28;20072;-66
2022/09/09 13:24:26;;;;;;;24.65;5.97;;;;;;;;;;5094374;28;20012;-66
2022/09/09 13:26:56;;;;;;;23.23;5.18;;;;;;;;;;5094396;28;20028;-65
2022/09/09 13:29:22;;;;;;;16.92;3.95;;;;;;;;;;5094368;28;20031;-66
2022/09/09 13:31:52;;;;;;;20.50;4.53;;;;;;;;;;5092578;28;20481;-65
2022/09/09 13:34:32;;;;;;;17.85;3.80;;;;;;;;;;5092956;28;20035;-66
2022/09/09 13:37:02;;;;;;;20.73;4.07;;;;;;;;;;5094232;28;20051;-66
2022/09/09 13:39:28;;;;;;;17.38;4.45;;;;;;;;;;5094144;28;20024;-66
2022/09/09 13:41:55;;;;;;;16.98;3.90;;;;;;;;;;5093043;28;20032;-66
2022/09/09 13:44:23;;;;;;;16.20;4.03;;;;;;;;;;5094097;28;20493;-66
2022/09/09 13:47:09;;;;;;;19.55;5.15;;;;;;;;;;5093977;28;20027;-66
2022/09/09 13:49:36;;;;;;;16.17;4.10;;;;;;;;;;5090290;28;20039;-66
2022/09/09 13:52:04;;;;;;;19.70;5.20;;;;;;;;;;5094044;28;20022;-65
2022/09/09 13:54:31;;;;;;;18.02;4.95;;;;;;;;;;5093851;28;20521;-65
2022/09/09 13:56:57;;;;;;;19.77;5.68;;;;;;;;;;5093748;28;20054;-65
2022/09/09 13:59:24;;;;;;;23.35;7.43;;;;;;;;;;5093715;28;20390;-65
2022/09/09 14:01:52;;;;;;;23.20;8.82;;;;;;;;;;5092776;28;20018;-66
2022/09/09 14:04:20;;;;;;;24.13;7.32;;;;;;;;;;5093611;28;20062;-66
2022/09/09 14:06:47;;;;;;;19.00;5.68;;;;;;;;;;5093723;28;20051;-65
2022/09/09 14:09:14;;;;;;;14.88;4.78;;;;;;;;;;5093676;28;20072;-66
2022/09/09 14:11:41;;;;;;;15.80;4.45;;;;;;;;;;5093679;28;20524;-64
2022/09/09 14:14:07;;;;;;;15.90;4.32;;;;;;;;;;5092217;28;20028;-65
2022/09/09 14:16:34;;;;;;;14.80;4.32;;;;;;;;;;5093317;28;20040;-64
2022/09/09 14:19:00;;;;;;;14.82;4.35;;;;;;;;;;5093506;28;20035;-64
2022/09/09 14:21:27;;;;;;;13.32;4.25;;;;;;;;;;5109156;28;20023;-65
2022/09/09 14:23:54;;;;;;;11.93;4.35;;;;;;;;;;5093513;28;20486;-65
2022/09/09 14:26:21;;;;;;;15.27;4.00;;;;;;;;;;5093035;28;20074;-65
2022/09/09 14:28:48;;;;;;;16.60;4.22;;;;;;;;;;5093600;28;20031;-66
2022/09/09 14:31:14;;;;;;;14.38;3.92;;;;;;;;;;5092134;28;20034;-66
2022/09/09 14:33:40;;;;;;;12.82;3.90;;;;;;;;;;5092836;28;20085;-67
2022/09/09 14:36:07;;;;;;;12.85;3.88;;;;;;;;;;5092606;28;20542;-66
2022/09/09 14:38:34;;;;;;;15.93;4.28;;;;;;;;;;5092511;28;20661;-67
2022/09/09 14:41:03;;;;;;;17.38;3.63;;;;;;;;;;5092558;28;20015;-65
2022/09/09 14:43:31;;;;;;;20.98;3.72;;;;;;;;;;5092640;28;20024;-66
2022/09/09 14:46:18;;;;;;;13.05;3.97;;;;;;;;;;5089010;28;20095;-67
2022/09/09 14:48:45;;;;;;;10.88;2.90;;;;;;;;;;5090653;28;20024;-69
2022/09/09 14:51:15;;;;;;;16.13;3.50;;;;;;;;;;5092308;28;20081;-69
2022/09/09 14:53:42;;;;;;;11.25;3.53;;;;;;;;;;5091603;28;20359;-69